sensor_id;sensor_type;location;lat;lon;timestamp;temperature;humidity
23073;DHT22;67971;51.046;3.732;2023-06-14T00:01:36;22.70;97.60
23073;DHT22;67971;51.046;3.732;2023-06-14T00:04:04;22.70;97.80
23073;DHT22;67971;51.046;3.732;2023-06-14T00:06:34;22.60;98.20
23073;DHT22;67971;51.046;3.732;2023-06-14T00:08:59;22.50;98.50
23073;DHT22;67971;51.046;3.732;2023-06-14T00:11:25;22.40;99.30
23073;DHT22;67971;51.046;3.732;2023-06-14T00:13:52;22.20;99.90
23073;DHT22;67971;51.046;3.732;2023-06-14T00:16:18;22.20;99.90
23073;DHT22;67971;51.046;3.732;2023-06-14T00:18:45;22.30;99.90
23073;DHT22;67971;51.046;3.732;2023-06-14T00:21:11;22.30;99.90
23073;DHT22;67971;51.046;3.732;2023-06-14T00:23:37;22.40;99.90
23073;DHT22;67971;51.046;3.732;2023-06-14T00:26:03;22.50;99.90
23073;DHT22;67971;51.046;3.732;2023-06-14T00:28:29;22.60;99.90
23073;DHT22;67971;51.046;3.732;2023-06-14T00:30:55;22.40;99.90
23073;DHT22;67971;51.046;3.732;2023-06-14T00:33:20;22.40;99.90
23073;DHT22;67971;51.046;3.732;2023-06-14T00:35:46;22.40;99.90
23073;DHT22;67971;51.046;3.732;2023-06-14T00:38:12;22.40;99.90
23073;DHT22;67971;51.046;3.732;2023-06-14T00:40:38;22.30;99.90
23073;DHT22;67971;51.046;3.732;2023-06-14T00:43:04;22.30;99.90
23073;DHT22;67971;51.046;3.732;2023-06-14T00:45:30;22.20;99.90
23073;DHT22;67971;51.046;3.732;2023-06-14T00:47:57;22.10;99.90
23073;DHT22;67971;51.046;3.732;2023-06-14T00:50:23;22.10;99.90
23073;DHT22;67971;51.046;3.732;2023-06-14T00:52:49;22.00;99.90
23073;DHT22;67971;51.046;3.732;2023-06-14T00:55:16;22.00;99.90
23073;DHT22;67971;51.046;3.732;2023-06-14T00:57:42;22.00;99.90
23073;DHT22;67971;51.046;3.732;2023-06-14T01:00:08;22.00;99.90
23073;DHT22;67971;51.046;3.732;2023-06-14T01:02:38;21.90;99.90
23073;DHT22;67971;51.046;3.732;2023-06-14T01:05:05;21.90;99.90
23073;DHT22;67971;51.046;3.732;2023-06-14T01:10:21;22.00;99.90
23073;DHT22;67971;51.046;3.732;2023-06-14T01:15:27;22.00;99.90
23073;DHT22;67971;51.046;3.732;2023-06-14T01:17:54;21.80;99.90
23073;DHT22;67971;51.046;3.732;2023-06-14T01:20:31;21.70;99.90
23073;DHT22;67971;51.046;3.732;2023-06-14T01:22:58;21.80;99.90
23073;DHT22;67971;51.046;3.732;2023-06-14T01:25:23;21.80;99.90
23073;DHT22;67971;51.046;3.732;2023-06-14T01:27:57;21.80;99.90
23073;DHT22;67971;51.046;3.732;2023-06-14T01:30:24;21.80;99.90
23073;DHT22;67971;51.046;3.732;2023-06-14T01:32:52;21.80;99.90
23073;DHT22;67971;51.046;3.732;2023-06-14T01:35:18;21.70;99.90
23073;DHT22;67971;51.046;3.732;2023-06-14T01:37:47;21.60;99.90
23073;DHT22;67971;51.046;3.732;2023-06-14T01:40:15;21.60;99.90
23073;DHT22;67971;51.046;3.732;2023-06-14T01:42:41;21.60;99.90
23073;DHT22;67971;51.046;3.732;2023-06-14T01:45:09;21.70;99.90
23073;DHT22;67971;51.046;3.732;2023-06-14T01:47:36;21.60;99.90
23073;DHT22;67971;51.046;3.732;2023-06-14T01:50:03;21.60;99.90
23073;DHT22;67971;51.046;3.732;2023-06-14T01:52:29;21.50;99.90
23073;DHT22;67971;51.046;3.732;2023-06-14T01:54:54;21.60;99.90
23073;DHT22;67971;51.046;3.732;2023-06-14T01:57:21;21.60;99.90
23073;DHT22;67971;51.046;3.732;2023-06-14T01:59:47;21.60;99.80
23073;DHT22;67971;51.046;3.732;2023-06-14T02:02:14;21.50;99.60
23073;DHT22;67971;51.046;3.732;2023-06-14T02:04:40;21.40;99.90
23073;DHT22;67971;51.046;3.732;2023-06-14T02:07:06;21.30;99.90
23073;DHT22;67971;51.046;3.732;2023-06-14T02:09:32;21.30;99.90
23073;DHT22;67971;51.046;3.732;2023-06-14T02:11:58;21.30;99.80
23073;DHT22;67971;51.046;3.732;2023-06-14T02:14:23;21.20;99.70
23073;DHT22;67971;51.046;3.732;2023-06-14T02:16:49;21.20;99.40
23073;DHT22;67971;51.046;3.732;2023-06-14T02:19:19;21.10;99.40
23073;DHT22;67971;51.046;3.732;2023-06-14T02:21:45;21.00;99.50
23073;DHT22;67971;51.046;3.732;2023-06-14T02:24:11;21.00;99.40
23073;DHT22;67971;51.046;3.732;2023-06-14T02:26:37;21.00;99.50
23073;DHT22;67971;51.046;3.732;2023-06-14T02:29:07;21.10;99.50
23073;DHT22;67971;51.046;3.732;2023-06-14T02:31:38;21.20;98.60
23073;DHT22;67971;51.046;3.732;2023-06-14T02:34:03;21.20;98.50
23073;DHT22;67971;51.046;3.732;2023-06-14T02:36:29;21.20;98.30
23073;DHT22;67971;51.046;3.732;2023-06-14T02:38:56;21.20;98.20
23073;DHT22;67971;51.046;3.732;2023-06-14T02:41:23;21.10;97.90
23073;DHT22;67971;51.046;3.732;2023-06-14T02:43:49;21.10;98.20
23073;DHT22;67971;51.046;3.732;2023-06-14T02:46:15;21.10;98.00
23073;DHT22;67971;51.046;3.732;2023-06-14T02:48:41;21.10;97.70
23073;DHT22;67971;51.046;3.732;2023-06-14T02:51:06;21.10;97.60
23073;DHT22;67971;51.046;3.732;2023-06-14T02:53:34;21.10;97.50
23073;DHT22;67971;51.046;3.732;2023-06-14T02:56:00;21.10;97.50
23073;DHT22;67971;51.046;3.732;2023-06-14T02:58:26;21.00;97.60
23073;DHT22;67971;51.046;3.732;2023-06-14T03:00:52;20.80;97.60
23073;DHT22;67971;51.046;3.732;2023-06-14T03:03:20;20.80;97.80
23073;DHT22;67971;51.046;3.732;2023-06-14T03:05:47;20.80;97.60
23073;DHT22;67971;51.046;3.732;2023-06-14T03:08:15;20.90;97.30
23073;DHT22;67971;51.046;3.732;2023-06-14T03:10:48;20.80;97.30
23073;DHT22;67971;51.046;3.732;2023-06-14T03:13:15;20.80;97.30
23073;DHT22;67971;51.046;3.732;2023-06-14T03:15:44;20.80;97.20
23073;DHT22;67971;51.046;3.732;2023-06-14T03:18:10;20.80;97.20
23073;DHT22;67971;51.046;3.732;2023-06-14T03:20:41;20.80;97.10
23073;DHT22;67971;51.046;3.732;2023-06-14T03:23:08;20.80;96.90
23073;DHT22;67971;51.046;3.732;2023-06-14T03:25:34;20.80;97.00
23073;DHT22;67971;51.046;3.732;2023-06-14T03:28:01;20.70;96.90
23073;DHT22;67971;51.046;3.732;2023-06-14T03:30:28;20.60;96.90
23073;DHT22;67971;51.046;3.732;2023-06-14T03:32:53;20.60;96.90
23073;DHT22;67971;51.046;3.732;2023-06-14T03:35:21;20.50;97.10
23073;DHT22;67971;51.046;3.732;2023-06-14T03:37:47;20.60;96.80
23073;DHT22;67971;51.046;3.732;2023-06-14T03:40:17;20.50;96.60
23073;DHT22;67971;51.046;3.732;2023-06-14T03:42:43;20.50;96.60
23073;DHT22;67971;51.046;3.732;2023-06-14T03:45:09;20.50;96.40
23073;DHT22;67971;51.046;3.732;2023-06-14T03:47:35;20.30;96.40
23073;DHT22;67971;51.046;3.732;2023-06-14T03:50:02;20.30;96.60
23073;DHT22;67971;51.046;3.732;2023-06-14T03:52:29;20.30;96.50
23073;DHT22;67971;51.046;3.732;2023-06-14T03:54:55;20.40;96.50
23073;DHT22;67971;51.046;3.732;2023-06-14T03:57:23;20.50;96.20
23073;DHT22;67971;51.046;3.732;2023-06-14T03:59:49;20.50;95.90
23073;DHT22;67971;51.046;3.732;2023-06-14T04:02:15;20.50;95.60
23073;DHT22;67971;51.046;3.732;2023-06-14T04:04:42;20.40;95.60
23073;DHT22;67971;51.046;3.732;2023-06-14T04:07:12;20.40;95.60
23073;DHT22;67971;51.046;3.732;2023-06-14T04:09:39;20.40;95.40
23073;DHT22;67971;51.046;3.732;2023-06-14T04:12:05;20.40;95.20
23073;DHT22;67971;51.046;3.732;2023-06-14T04:14:31;20.40;95.20
23073;DHT22;67971;51.046;3.732;2023-06-14T04:16:58;20.40;95.20
23073;DHT22;67971;51.046;3.732;2023-06-14T04:19:24;20.50;94.90
23073;DHT22;67971;51.046;3.732;2023-06-14T04:21:50;20.50;94.90
23073;DHT22;67971;51.046;3.732;2023-06-14T04:24:15;20.50;94.60
23073;DHT22;67971;51.046;3.732;2023-06-14T04:26:42;20.50;94.80
23073;DHT22;67971;51.046;3.732;2023-06-14T04:29:10;20.60;94.80
23073;DHT22;67971;51.046;3.732;2023-06-14T04:31:40;20.70;94.60
23073;DHT22;67971;51.046;3.732;2023-06-14T04:34:06;20.70;94.10
23073;DHT22;67971;51.046;3.732;2023-06-14T04:36:33;20.70;93.90
23073;DHT22;67971;51.046;3.732;2023-06-14T04:39:01;20.70;93.80
23073;DHT22;67971;51.046;3.732;2023-06-14T04:41:30;20.70;93.70
23073;DHT22;67971;51.046;3.732;2023-06-14T04:44:01;20.70;93.70
23073;DHT22;67971;51.046;3.732;2023-06-14T04:46:28;20.80;93.70
23073;DHT22;67971;51.046;3.732;2023-06-14T04:48:54;20.90;93.40
23073;DHT22;67971;51.046;3.732;2023-06-14T04:51:20;21.00;93.50
23073;DHT22;67971;51.046;3.732;2023-06-14T04:53:55;21.00;93.30
23073;DHT22;67971;51.046;3.732;2023-06-14T04:56:22;20.90;93.20
23073;DHT22;67971;51.046;3.732;2023-06-14T04:58:48;21.10;93.20
23073;DHT22;67971;51.046;3.732;2023-06-14T05:01:14;21.20;93.10
23073;DHT22;67971;51.046;3.732;2023-06-14T05:03:40;21.30;92.80
23073;DHT22;67971;51.046;3.732;2023-06-14T05:06:06;21.20;92.70
23073;DHT22;67971;51.046;3.732;2023-06-14T05:08:32;21.10;93.00
23073;DHT22;67971;51.046;3.732;2023-06-14T05:10:58;21.10;92.80
23073;DHT22;67971;51.046;3.732;2023-06-14T05:13:23;21.20;92.60
23073;DHT22;67971;51.046;3.732;2023-06-14T05:15:49;21.20;92.50
23073;DHT22;67971;51.046;3.732;2023-06-14T05:18:14;21.30;92.20
23073;DHT22;67971;51.046;3.732;2023-06-14T05:20:41;21.20;91.80
23073;DHT22;67971;51.046;3.732;2023-06-14T05:23:08;21.20;91.90
23073;DHT22;67971;51.046;3.732;2023-06-14T05:25:34;21.00;93.90
23073;DHT22;67971;51.046;3.732;2023-06-14T05:27:59;20.80;94.10
23073;DHT22;67971;51.046;3.732;2023-06-14T05:30:25;20.90;93.90
23073;DHT22;67971;51.046;3.732;2023-06-14T05:32:51;21.00;93.10
23073;DHT22;67971;51.046;3.732;2023-06-14T05:35:18;21.10;93.00
23073;DHT22;67971;51.046;3.732;2023-06-14T05:37:44;21.10;92.80
23073;DHT22;67971;51.046;3.732;2023-06-14T05:40:10;21.20;92.70
23073;DHT22;67971;51.046;3.732;2023-06-14T05:42:35;21.40;92.10
23073;DHT22;67971;51.046;3.732;2023-06-14T05:45:01;21.30;91.70
23073;DHT22;67971;51.046;3.732;2023-06-14T05:47:27;21.40;91.60
23073;DHT22;67971;51.046;3.732;2023-06-14T05:49:53;21.40;91.60
23073;DHT22;67971;51.046;3.732;2023-06-14T05:52:20;21.60;91.60
23073;DHT22;67971;51.046;3.732;2023-06-14T05:54:46;22.00;90.70
23073;DHT22;67971;51.046;3.732;2023-06-14T05:57:12;22.20;90.80
23073;DHT22;67971;51.046;3.732;2023-06-14T05:59:37;22.50;90.10
23073;DHT22;67971;51.046;3.732;2023-06-14T06:02:03;22.90;89.10
23073;DHT22;67971;51.046;3.732;2023-06-14T06:04:29;23.40;88.60
23073;DHT22;67971;51.046;3.732;2023-06-14T06:06:55;24.00;86.50
23073;DHT22;67971;51.046;3.732;2023-06-14T06:09:20;24.50;84.60
23073;DHT22;67971;51.046;3.732;2023-06-14T06:11:46;24.70;84.50
23073;DHT22;67971;51.046;3.732;2023-06-14T06:14:12;25.10;82.60
23073;DHT22;67971;51.046;3.732;2023-06-14T06:16:37;25.20;81.40
23073;DHT22;67971;51.046;3.732;2023-06-14T06:19:03;25.40;80.90
23073;DHT22;67971;51.046;3.732;2023-06-14T06:21:29;25.30;81.20
23073;DHT22;67971;51.046;3.732;2023-06-14T06:23:54;25.20;81.30
23073;DHT22;67971;51.046;3.732;2023-06-14T06:26:22;25.30;81.60
23073;DHT22;67971;51.046;3.732;2023-06-14T06:28:48;25.40;80.80
23073;DHT22;67971;51.046;3.732;2023-06-14T06:31:14;25.70;80.30
23073;DHT22;67971;51.046;3.732;2023-06-14T06:33:40;25.90;80.50
23073;DHT22;67971;51.046;3.732;2023-06-14T06:36:06;26.10;80.00
23073;DHT22;67971;51.046;3.732;2023-06-14T06:38:32;26.20;79.00
23073;DHT22;67971;51.046;3.732;2023-06-14T06:40:57;26.20;78.50
23073;DHT22;67971;51.046;3.732;2023-06-14T06:43:23;26.20;79.80
23073;DHT22;67971;51.046;3.732;2023-06-14T06:45:48;26.30;78.70
23073;DHT22;67971;51.046;3.732;2023-06-14T06:48:14;26.30;79.70
23073;DHT22;67971;51.046;3.732;2023-06-14T06:50:41;26.60;79.90
23073;DHT22;67971;51.046;3.732;2023-06-14T06:53:06;26.80;79.00
23073;DHT22;67971;51.046;3.732;2023-06-14T06:55:32;27.00;77.70
23073;DHT22;67971;51.046;3.732;2023-06-14T06:57:58;27.10;78.60
23073;DHT22;67971;51.046;3.732;2023-06-14T07:00:25;27.20;77.50
23073;DHT22;67971;51.046;3.732;2023-06-14T07:02:51;27.30;77.50
23073;DHT22;67971;51.046;3.732;2023-06-14T07:05:17;27.00;77.70
23073;DHT22;67971;51.046;3.732;2023-06-14T07:07:43;26.70;77.70
23073;DHT22;67971;51.046;3.732;2023-06-14T07:10:09;26.80;78.10
23073;DHT22;67971;51.046;3.732;2023-06-14T07:12:35;26.90;78.20
23073;DHT22;67971;51.046;3.732;2023-06-14T07:15:07;26.80;78.70
23073;DHT22;67971;51.046;3.732;2023-06-14T07:17:34;26.90;77.60
23073;DHT22;67971;51.046;3.732;2023-06-14T07:20:02;26.90;77.90
23073;DHT22;67971;51.046;3.732;2023-06-14T07:22:47;26.90;77.90
23073;DHT22;67971;51.046;3.732;2023-06-14T07:25:13;26.90;77.80
23073;DHT22;67971;51.046;3.732;2023-06-14T07:27:43;27.10;77.80
23073;DHT22;67971;51.046;3.732;2023-06-14T07:30:09;27.10;76.90
23073;DHT22;67971;51.046;3.732;2023-06-14T07:32:36;26.90;76.70
23073;DHT22;67971;51.046;3.732;2023-06-14T07:35:02;26.70;77.70
23073;DHT22;67971;51.046;3.732;2023-06-14T07:37:28;26.80;78.80
23073;DHT22;67971;51.046;3.732;2023-06-14T07:39:54;26.80;79.10
23073;DHT22;67971;51.046;3.732;2023-06-14T07:42:20;27.10;80.60
23073;DHT22;67971;51.046;3.732;2023-06-14T07:44:46;27.50;78.90
23073;DHT22;67971;51.046;3.732;2023-06-14T07:47:11;27.60;78.80
23073;DHT22;67971;51.046;3.732;2023-06-14T07:49:37;27.60;77.60
23073;DHT22;67971;51.046;3.732;2023-06-14T07:52:03;27.70;77.80
23073;DHT22;67971;51.046;3.732;2023-06-14T07:54:30;27.70;78.90
23073;DHT22;67971;51.046;3.732;2023-06-14T07:56:58;27.90;77.20
23073;DHT22;67971;51.046;3.732;2023-06-14T07:59:26;27.90;77.00
23073;DHT22;67971;51.046;3.732;2023-06-14T08:01:51;28.00;77.80
23073;DHT22;67971;51.046;3.732;2023-06-14T08:04:17;28.10;78.00
23073;DHT22;67971;51.046;3.732;2023-06-14T08:06:43;28.50;75.40
23073;DHT22;67971;51.046;3.732;2023-06-14T08:09:11;29.10;76.40
23073;DHT22;67971;51.046;3.732;2023-06-14T08:11:38;29.80;75.10
23073;DHT22;67971;51.046;3.732;2023-06-14T08:14:03;30.40;73.10
23073;DHT22;67971;51.046;3.732;2023-06-14T08:16:29;30.90;72.40
23073;DHT22;67971;51.046;3.732;2023-06-14T08:18:55;31.30;73.00
23073;DHT22;67971;51.046;3.732;2023-06-14T08:21:21;31.80;72.20
23073;DHT22;67971;51.046;3.732;2023-06-14T08:23:46;32.30;70.80
23073;DHT22;67971;51.046;3.732;2023-06-14T08:26:12;32.50;68.50
23073;DHT22;67971;51.046;3.732;2023-06-14T08:28:38;32.80;68.60
23073;DHT22;67971;51.046;3.732;2023-06-14T08:31:04;33.10;67.80
23073;DHT22;67971;51.046;3.732;2023-06-14T08:33:30;33.50;66.30
23073;DHT22;67971;51.046;3.732;2023-06-14T08:35:58;33.80;66.90
23073;DHT22;67971;51.046;3.732;2023-06-14T08:38:24;34.20;65.60
23073;DHT22;67971;51.046;3.732;2023-06-14T08:40:50;34.60;65.20
23073;DHT22;67971;51.046;3.732;2023-06-14T08:43:18;34.70;63.40
23073;DHT22;67971;51.046;3.732;2023-06-14T08:45:46;34.90;63.30
23073;DHT22;67971;51.046;3.732;2023-06-14T08:48:12;35.20;62.00
23073;DHT22;67971;51.046;3.732;2023-06-14T08:50:43;35.10;60.20
23073;DHT22;67971;51.046;3.732;2023-06-14T08:53:12;35.00;61.10
23073;DHT22;67971;51.046;3.732;2023-06-14T08:55:45;34.90;60.10
23073;DHT22;67971;51.046;3.732;2023-06-14T08:58:10;35.00;60.60
23073;DHT22;67971;51.046;3.732;2023-06-14T09:00:39;34.90;60.30
23073;DHT22;67971;51.046;3.732;2023-06-14T09:03:07;34.70;62.00
23073;DHT22;67971;51.046;3.732;2023-06-14T09:05:38;35.00;62.30
23073;DHT22;67971;51.046;3.732;2023-06-14T09:08:04;35.40;61.20
23073;DHT22;67971;51.046;3.732;2023-06-14T09:10:31;35.50;60.30
23073;DHT22;67971;51.046;3.732;2023-06-14T09:13:01;35.90;60.50
23073;DHT22;67971;51.046;3.732;2023-06-14T09:15:27;36.10;59.20
23073;DHT22;67971;51.046;3.732;2023-06-14T09:17:53;36.50;58.60
23073;DHT22;67971;51.046;3.732;2023-06-14T09:20:19;36.80;57.10
23073;DHT22;67971;51.046;3.732;2023-06-14T09:22:45;37.20;57.80
23073;DHT22;67971;51.046;3.732;2023-06-14T09:25:10;37.80;57.70
23073;DHT22;67971;51.046;3.732;2023-06-14T09:27:38;38.50;56.90
23073;DHT22;67971;51.046;3.732;2023-06-14T09:30:06;39.10;56.20
23073;DHT22;67971;51.046;3.732;2023-06-14T09:32:37;40.00;54.80
23073;DHT22;67971;51.046;3.732;2023-06-14T09:35:08;40.20;54.90
23073;DHT22;67971;51.046;3.732;2023-06-14T09:37:35;40.60;53.40
23073;DHT22;67971;51.046;3.732;2023-06-14T09:40:03;41.00;51.60
23073;DHT22;67971;51.046;3.732;2023-06-14T09:42:29;40.80;51.80
23073;DHT22;67971;51.046;3.732;2023-06-14T09:44:56;40.50;51.00
23073;DHT22;67971;51.046;3.732;2023-06-14T09:47:23;40.10;50.80
23073;DHT22;67971;51.046;3.732;2023-06-14T09:49:51;40.30;51.80
23073;DHT22;67971;51.046;3.732;2023-06-14T09:52:21;40.80;51.30
23073;DHT22;67971;51.046;3.732;2023-06-14T09:54:48;40.70;51.30
23073;DHT22;67971;51.046;3.732;2023-06-14T09:57:16;41.20;51.10
23073;DHT22;67971;51.046;3.732;2023-06-14T09:59:46;41.70;50.50
23073;DHT22;67971;51.046;3.732;2023-06-14T10:02:24;42.10;50.30
23073;DHT22;67971;51.046;3.732;2023-06-14T10:04:56;42.40;48.60
23073;DHT22;67971;51.046;3.732;2023-06-14T10:07:25;41.90;48.20
23073;DHT22;67971;51.046;3.732;2023-06-14T10:09:53;41.40;49.80
23073;DHT22;67971;51.046;3.732;2023-06-14T10:12:18;41.70;50.70
23073;DHT22;67971;51.046;3.732;2023-06-14T10:14:51;42.40;49.90
23073;DHT22;67971;51.046;3.732;2023-06-14T10:17:27;42.80;49.60
23073;DHT22;67971;51.046;3.732;2023-06-14T10:20:19;43.10;49.60
23073;DHT22;67971;51.046;3.732;2023-06-14T10:23:08;43.40;49.40
23073;DHT22;67971;51.046;3.732;2023-06-14T10:25:35;43.60;48.40
23073;DHT22;67971;51.046;3.732;2023-06-14T10:28:18;43.80;47.10
23073;DHT22;67971;51.046;3.732;2023-06-14T10:31:12;43.70;48.80
23073;DHT22;67971;51.046;3.732;2023-06-14T10:33:56;43.90;48.10
23073;DHT22;67971;51.046;3.732;2023-06-14T10:39:17;43.60;48.10
23073;DHT22;67971;51.046;3.732;2023-06-14T10:41:52;43.90;48.30
23073;DHT22;67971;51.046;3.732;2023-06-14T10:46:48;44.70;46.80
23073;DHT22;67971;51.046;3.732;2023-06-14T10:49:18;43.80;45.50
23073;DHT22;67971;51.046;3.732;2023-06-14T10:51:51;43.50;46.50
23073;DHT22;67971;51.046;3.732;2023-06-14T10:54:20;42.80;47.50
23073;DHT22;67971;51.046;3.732;2023-06-14T10:56:47;42.50;46.90
23073;DHT22;67971;51.046;3.732;2023-06-14T10:59:14;42.60;47.70
23073;DHT22;67971;51.046;3.732;2023-06-14T11:04:50;43.60;47.60
23073;DHT22;67971;51.046;3.732;2023-06-14T11:12:36;42.90;45.40
23073;DHT22;67971;51.046;3.732;2023-06-14T11:15:05;42.40;46.60
23073;DHT22;67971;51.046;3.732;2023-06-14T11:17:33;42.30;47.00
23073;DHT22;67971;51.046;3.732;2023-06-14T11:20:09;43.20;46.60
23073;DHT22;67971;51.046;3.732;2023-06-14T11:22:45;43.60;46.30
23073;DHT22;67971;51.046;3.732;2023-06-14T11:25:14;43.80;45.50
23073;DHT22;67971;51.046;3.732;2023-06-14T11:27:42;43.90;45.40
23073;DHT22;67971;51.046;3.732;2023-06-14T11:30:08;44.00;45.30
23073;DHT22;67971;51.046;3.732;2023-06-14T11:32:38;44.30;46.20
23073;DHT22;67971;51.046;3.732;2023-06-14T11:35:04;44.40;45.50
23073;DHT22;67971;51.046;3.732;2023-06-14T11:37:31;44.90;44.60
23073;DHT22;67971;51.046;3.732;2023-06-14T11:39:59;43.90;43.50
23073;DHT22;67971;51.046;3.732;2023-06-14T11:42:27;44.00;44.60
23073;DHT22;67971;51.046;3.732;2023-06-14T11:44:54;44.70;44.60
23073;DHT22;67971;51.046;3.732;2023-06-14T11:47:34;44.70;43.40
23073;DHT22;67971;51.046;3.732;2023-06-14T11:50:03;43.50;44.80
23073;DHT22;67971;51.046;3.732;2023-06-14T11:52:29;43.30;45.90
23073;DHT22;67971;51.046;3.732;2023-06-14T11:54:56;43.50;45.80
23073;DHT22;67971;51.046;3.732;2023-06-14T11:57:22;44.10;45.90
23073;DHT22;67971;51.046;3.732;2023-06-14T11:59:51;45.00;45.70
23073;DHT22;67971;51.046;3.732;2023-06-14T12:02:19;45.50;45.00
23073;DHT22;67971;51.046;3.732;2023-06-14T12:04:48;46.10;44.40
23073;DHT22;67971;51.046;3.732;2023-06-14T12:07:17;46.60;43.50
23073;DHT22;67971;51.046;3.732;2023-06-14T12:12:23;44.60;44.50
23073;DHT22;67971;51.046;3.732;2023-06-14T12:14:51;44.40;44.70
23073;DHT22;67971;51.046;3.732;2023-06-14T12:17:18;44.70;44.40
23073;DHT22;67971;51.046;3.732;2023-06-14T12:19:48;44.50;43.70
23073;DHT22;67971;51.046;3.732;2023-06-14T12:22:16;44.40;44.50
23073;DHT22;67971;51.046;3.732;2023-06-14T12:24:50;44.30;44.70
23073;DHT22;67971;51.046;3.732;2023-06-14T12:27:17;44.30;44.90
23073;DHT22;67971;51.046;3.732;2023-06-14T12:29:59;44.80;44.80
23073;DHT22;67971;51.046;3.732;2023-06-14T12:32:27;44.30;43.80
23073;DHT22;67971;51.046;3.732;2023-06-14T12:34:53;43.90;43.90
23073;DHT22;67971;51.046;3.732;2023-06-14T12:37:19;43.90;44.80
23073;DHT22;67971;51.046;3.732;2023-06-14T12:39:44;44.50;44.70
23073;DHT22;67971;51.046;3.732;2023-06-14T12:42:10;44.00;44.60
23073;DHT22;67971;51.046;3.732;2023-06-14T12:44:36;43.30;44.10
23073;DHT22;67971;51.046;3.732;2023-06-14T12:47:18;42.50;46.00
23073;DHT22;67971;51.046;3.732;2023-06-14T12:49:43;42.50;44.80
23073;DHT22;67971;51.046;3.732;2023-06-14T12:52:09;43.30;45.50
23073;DHT22;67971;51.046;3.732;2023-06-14T12:54:35;43.90;44.70
23073;DHT22;67971;51.046;3.732;2023-06-14T12:57:00;44.30;44.00
23073;DHT22;67971;51.046;3.732;2023-06-14T12:59:26;43.80;44.50
23073;DHT22;67971;51.046;3.732;2023-06-14T13:01:59;43.90;44.80
23073;DHT22;67971;51.046;3.732;2023-06-14T13:04:24;44.30;43.30
23073;DHT22;67971;51.046;3.732;2023-06-14T13:06:50;44.20;44.40
23073;DHT22;67971;51.046;3.732;2023-06-14T13:09:16;43.80;45.00
23073;DHT22;67971;51.046;3.732;2023-06-14T13:11:41;44.00;44.50
23073;DHT22;67971;51.046;3.732;2023-06-14T13:14:11;44.70;44.40
23073;DHT22;67971;51.046;3.732;2023-06-14T13:16:37;45.50;43.70
23073;DHT22;67971;51.046;3.732;2023-06-14T13:19:02;46.50;43.40
23073;DHT22;67971;51.046;3.732;2023-06-14T13:21:28;46.90;43.10
23073;DHT22;67971;51.046;3.732;2023-06-14T13:23:53;46.90;42.90
23073;DHT22;67971;51.046;3.732;2023-06-14T13:26:19;46.60;43.40
23073;DHT22;67971;51.046;3.732;2023-06-14T13:28:45;46.20;43.30
23073;DHT22;67971;51.046;3.732;2023-06-14T13:31:10;46.10;43.10
23073;DHT22;67971;51.046;3.732;2023-06-14T13:33:36;46.40;42.90
23073;DHT22;67971;51.046;3.732;2023-06-14T13:36:02;46.00;43.00
23073;DHT22;67971;51.046;3.732;2023-06-14T13:38:27;46.30;42.80
23073;DHT22;67971;51.046;3.732;2023-06-14T13:40:53;45.60;42.20
23073;DHT22;67971;51.046;3.732;2023-06-14T13:43:19;44.70;42.40
23073;DHT22;67971;51.046;3.732;2023-06-14T13:45:45;44.00;43.70
23073;DHT22;67971;51.046;3.732;2023-06-14T13:48:10;44.10;43.50
23073;DHT22;67971;51.046;3.732;2023-06-14T13:50:37;44.60;43.40
23073;DHT22;67971;51.046;3.732;2023-06-14T13:53:02;44.50;42.70
23073;DHT22;67971;51.046;3.732;2023-06-14T13:55:28;43.10;43.50
23073;DHT22;67971;51.046;3.732;2023-06-14T13:57:54;41.90;44.50
23073;DHT22;67971;51.046;3.732;2023-06-14T14:00:20;41.30;45.50
23073;DHT22;67971;51.046;3.732;2023-06-14T14:02:45;41.50;45.30
23073;DHT22;67971;51.046;3.732;2023-06-14T14:05:11;42.00;45.30
23073;DHT22;67971;51.046;3.732;2023-06-14T14:07:37;43.30;45.70
23073;DHT22;67971;51.046;3.732;2023-06-14T14:10:03;44.00;44.00
23073;DHT22;67971;51.046;3.732;2023-06-14T14:12:29;43.50;44.20
23073;DHT22;67971;51.046;3.732;2023-06-14T14:14:55;44.00;44.10
23073;DHT22;67971;51.046;3.732;2023-06-14T14:17:21;44.50;43.40
23073;DHT22;67971;51.046;3.732;2023-06-14T14:19:48;45.30;42.90
23073;DHT22;67971;51.046;3.732;2023-06-14T14:22:14;44.50;43.40
23073;DHT22;67971;51.046;3.732;2023-06-14T14:24:39;44.20;44.70
23073;DHT22;67971;51.046;3.732;2023-06-14T14:27:05;44.50;43.90
23073;DHT22;67971;51.046;3.732;2023-06-14T14:29:32;45.40;43.50
23073;DHT22;67971;51.046;3.732;2023-06-14T14:31:57;45.80;43.70
23073;DHT22;67971;51.046;3.732;2023-06-14T14:34:24;45.80;42.90
23073;DHT22;67971;51.046;3.732;2023-06-14T14:36:50;45.70;43.30
23073;DHT22;67971;51.046;3.732;2023-06-14T14:39:16;45.30;43.70
23073;DHT22;67971;51.046;3.732;2023-06-14T14:41:42;45.20;44.00
23073;DHT22;67971;51.046;3.732;2023-06-14T14:44:07;44.70;43.70
23073;DHT22;67971;51.046;3.732;2023-06-14T14:46:33;45.20;43.10
23073;DHT22;67971;51.046;3.732;2023-06-14T14:48:59;45.00;43.50
23073;DHT22;67971;51.046;3.732;2023-06-14T14:51:26;45.10;43.10
23073;DHT22;67971;51.046;3.732;2023-06-14T14:53:51;45.10;43.00
23073;DHT22;67971;51.046;3.732;2023-06-14T14:56:17;44.80;42.80
23073;DHT22;67971;51.046;3.732;2023-06-14T14:58:42;44.90;42.90
23073;DHT22;67971;51.046;3.732;2023-06-14T15:01:09;45.40;42.80
23073;DHT22;67971;51.046;3.732;2023-06-14T15:03:36;45.40;42.50
23073;DHT22;67971;51.046;3.732;2023-06-14T15:06:01;45.20;42.10
23073;DHT22;67971;51.046;3.732;2023-06-14T15:08:27;45.60;41.80
23073;DHT22;67971;51.046;3.732;2023-06-14T15:10:52;45.70;42.70
23073;DHT22;67971;51.046;3.732;2023-06-14T15:13:18;46.30;41.80
23073;DHT22;67971;51.046;3.732;2023-06-14T15:15:44;46.00;41.80
23073;DHT22;67971;51.046;3.732;2023-06-14T15:18:09;45.80;42.00
23073;DHT22;67971;51.046;3.732;2023-06-14T15:20:35;44.80;41.30
23073;DHT22;67971;51.046;3.732;2023-06-14T15:23:01;42.80;42.90
23073;DHT22;67971;51.046;3.732;2023-06-14T15:25:30;41.10;43.80
23073;DHT22;67971;51.046;3.732;2023-06-14T15:27:57;39.80;44.70
23073;DHT22;67971;51.046;3.732;2023-06-14T15:30:23;38.90;45.60
23073;DHT22;67971;51.046;3.732;2023-06-14T15:32:49;38.10;46.60
23073;DHT22;67971;51.046;3.732;2023-06-14T15:35:17;37.20;46.90
23073;DHT22;67971;51.046;3.732;2023-06-14T15:37:43;36.70;47.70
23073;DHT22;67971;51.046;3.732;2023-06-14T15:40:09;36.30;48.70
23073;DHT22;67971;51.046;3.732;2023-06-14T15:42:35;36.00;49.70
23073;DHT22;67971;51.046;3.732;2023-06-14T15:45:01;35.50;48.90
23073;DHT22;67971;51.046;3.732;2023-06-14T15:47:26;35.10;50.30
23073;DHT22;67971;51.046;3.732;2023-06-14T15:49:52;34.70;50.50
23073;DHT22;67971;51.046;3.732;2023-06-14T15:52:18;34.30;51.40